Terminal Aerodrome Forecast
Issued by NWS Wakefield, VA

Home | Current Version | Previous Version | Text Only | Print | Product List | Glossary On
Versions: 1 2 3 4 5 6 7 8 9 10 11 12 13 14 15 16 17 18 19
000
FTUS41 KAKQ 032338
TAFSBY
TAF
KSBY 032338Z 0400/0424 13006KT P6SM FEW030 BKN090
     FM040500 12006KT P6SM -RA BKN035 OVC050
     FM040900 11005KT 4SM -RA BR SCT010 OVC025
     FM041200 VRB04KT 2SM -RA BR OVC010
     FM041600 28010KT P6SM -RA SCT015 BKN035=

USA.gov is the U.S. government's official web portal to all federal, state and local government web resources and services.